Impacts TAF Board
For situational awareness. Not to be used for flight planning purposes.
IDs:

KMTH - Marathon Arpt, FL, US

Issued at 1455 UTC 19 Sep 2018
Updated at 1620 UTC 19 Sep 2018
Potential Impact None Slight Moderate High
Time1553Z 19/17Z 19/18Z 19/19Z 19/20Z 19/21Z 19/22Z 19/23Z 20/00Z 20/01Z 20/02Z 20/03Z 20/04Z 20/05Z>>
Type OBS PRVL PRVL PRVL PRVL PRVL PRVL PRVL PRVL PRVL PRVL PRVL PRVL PRVL
VIS 10 >6 >6 >6 >6 >6 >6 >6 >6 >6 >6 >6 >6 >6
CIG -- -- -- -- -- -- -- -- -- -- -- -- -- --
Cover CLR FEW FEW FEW FEW FEW FEW FEW FEW FEW FEW FEW SCT SCT
FltCat VFR VFR VFR VFR VFR VFR VFR VFR VFR VFR VFR VFR VFR VFR
WX -- -- -- -- -- -- -- -- -- -- -- -- VCSH VCSH
WDir 190 180 180 180 180 220 220 220 220 220 220 220 180 180
WSpd 5 6 6 6 6 6 6 6 6 6 6 6 4 4
WGst -- -- -- -- -- -- -- -- -- -- -- -- -- --
Raw TAF
KMTH 191455Z 1915/2012 18006KT P6SM FEW020
  FM192100 22006KT P6SM FEW025
  FM200400 18004KT P6SM VCSH SCT025 SCT070


Raw METAR
KMTH 191553Z AUTO 19005KT 10SM CLR 32/24 A2999 RMK AO2 SLP155 T03220244
KMTH 191453Z AUTO 18007KT 10SM CLR 32/24 A2998 RMK AO2 SLP152 T03170239 51016
KMTH 191353Z AUTO 20005KT 10SM CLR 31/24 A2998 RMK AO2 SLP150 T03110244

METAR Board
Radar Display
Forecast Discussion
For situational awareness. Not to be used for flight planning purposes.